createdAt,value
2018-05-06T04:09:33.266Z,54.43
2018-05-06T04:09:58.619Z,54.43
2018-05-06T04:10:24.048Z,54.33
2018-05-06T04:10:49.609Z,54.43
2018-05-06T04:11:15.032Z,54.43
2018-05-06T04:11:40.484Z,54.52
2018-05-06T04:12:05.980Z,54.33
2018-05-06T04:12:31.417Z,54.43
2018-05-06T04:12:56.904Z,54.33
2018-05-06T04:13:22.597Z,53.85
2018-05-06T04:13:48.031Z,54.43
2018-05-06T04:14:13.504Z,54.43
2018-05-06T04:14:39.008Z,54.52
2018-05-06T04:15:04.482Z,54.43
2018-05-06T04:15:29.900Z,54.43
2018-05-06T04:15:55.428Z,54.43
2018-05-06T04:16:20.930Z,54.52
2018-05-06T04:16:46.448Z,54.33
2018-05-06T04:17:11.921Z,54.24
2018-05-06T04:17:37.368Z,54.33
2018-05-06T04:18:03.066Z,54.24
2018-05-06T04:18:28.511Z,54.14
2018-05-06T04:18:54.020Z,54.24
2018-05-06T04:19:19.487Z,54.43
2018-05-06T04:19:44.977Z,54.24
2018-05-06T04:20:10.448Z,54.14
2018-05-06T04:20:35.932Z,54.33
2018-05-06T04:21:01.379Z,54.04
2018-05-06T04:21:26.863Z,54.14
2018-05-06T04:21:52.358Z,54.24
2018-05-06T04:22:17.808Z,54.26
2018-05-06T04:22:43.257Z,54.52
2018-05-06T04:23:08.728Z,54.55
2018-05-06T04:23:34.199Z,54.24
2018-05-06T04:23:59.648Z,54.17
2018-05-06T04:24:25.193Z,54.33
2018-05-06T04:24:50.668Z,54.52
2018-05-06T04:25:16.076Z,54.45
2018-05-06T04:25:41.565Z,54.24
2018-05-06T04:26:07.015Z,54.33
2018-05-06T04:26:32.478Z,54.33
2018-05-06T04:26:57.979Z,54.43
2018-05-06T04:27:23.434Z,54.45
2018-05-06T04:27:48.880Z,54.14
2018-05-06T04:28:14.355Z,54.14
2018-05-06T04:28:39.918Z,54.17
2018-05-06T04:29:05.435Z,54.14
2018-05-06T04:29:30.879Z,54.24
2018-05-06T04:29:56.459Z,54.24
2018-05-06T04:30:21.894Z,54.17
2018-05-06T04:30:47.401Z,54.24
2018-05-06T04:31:12.808Z,54.33
2018-05-06T04:31:38.309Z,53.85
2018-05-06T04:32:03.842Z,54.43
2018-05-06T04:32:29.311Z,54.17
2018-05-06T04:32:54.739Z,54.17
2018-05-06T04:33:20.379Z,54.17
2018-05-06T04:33:45.748Z,54.43
2018-05-06T04:34:11.214Z,54.07
2018-05-06T04:34:36.694Z,54.07
2018-05-06T04:35:02.159Z,54.17
2018-05-06T04:35:27.628Z,54.04
2018-05-06T04:35:53.184Z,54.36
2018-05-06T04:36:18.554Z,54.36
2018-05-06T04:36:43.990Z,54.45
2018-05-06T04:37:09.471Z,54.26
2018-05-06T04:37:34.948Z,54.17
2018-05-06T04:38:00.521Z,54.36
2018-05-06T04:38:26.062Z,54.45
2018-05-06T04:38:51.628Z,54.17
2018-05-06T04:39:16.925Z,54.17
2018-05-06T04:39:42.428Z,54.17
2018-05-06T04:40:07.901Z,54.26
2018-05-06T04:40:33.484Z,54.17
2018-05-06T04:40:58.969Z,54.45
2018-05-06T04:41:24.364Z,54.07
2018-05-06T04:41:49.975Z,54.36
2018-05-06T04:42:15.390Z,54.36
2018-05-06T04:42:41.055Z,54.45
2018-05-06T04:43:06.592Z,54.17
2018-05-06T04:43:32.062Z,54.17
2018-05-06T04:43:57.516Z,53.78
2018-05-06T04:44:23.059Z,54.26
2018-05-06T04:44:48.615Z,54.36
2018-05-06T04:45:13.977Z,54.07
2018-05-06T04:45:39.511Z,53.97
2018-05-06T04:46:05.015Z,53.69
2018-05-06T04:46:30.402Z,53.41
2018-05-06T04:46:55.854Z,53.97
2018-05-06T04:47:21.501Z,53.88
2018-05-06T04:47:46.921Z,53.97
2018-05-06T04:48:12.380Z,53.69
2018-05-06T04:48:37.840Z,53.78
2018-05-06T04:49:03.322Z,53.88
2018-05-06T04:49:28.997Z,53.69
2018-05-06T04:49:54.406Z,53.88
2018-05-06T04:50:19.862Z,53.97
2018-05-06T04:50:45.223Z,53.21
2018-05-06T04:51:10.705Z,53.43
2018-05-06T04:51:36.259Z,54
2018-05-06T04:52:01.725Z,53.91
2018-05-06T04:52:27.185Z,53.53
2018-05-06T04:52:52.646Z,53.72
2018-05-06T04:53:18.144Z,53.43
2018-05-06T04:53:43.561Z,53.43
2018-05-06T04:54:09.050Z,53.43
2018-05-06T04:54:34.488Z,53.43
2018-05-06T04:54:59.979Z,53.33
2018-05-06T04:55:25.440Z,53.43
2018-05-06T04:55:50.879Z,53.24
2018-05-06T04:56:16.366Z,52.57
2018-05-06T04:56:41.859Z,52.67
2018-05-06T04:57:07.327Z,52.57
2018-05-06T04:57:32.803Z,52.59
2018-05-06T04:57:58.248Z,52.59
2018-05-06T04:58:23.741Z,52.88
2018-05-06T04:58:49.211Z,52.4
2018-05-06T04:59:14.657Z,52.5
2018-05-06T04:59:40.124Z,52.31
2018-05-06T05:00:05.546Z,51.83
2018-05-06T05:00:31.017Z,51.93
2018-05-06T05:00:56.467Z,51.83
2018-05-06T05:01:21.918Z,50.71
2018-05-06T05:01:47.391Z,51.86
2018-05-06T05:02:12.843Z,51.19
2018-05-06T05:02:38.301Z,51.45
2018-05-06T05:03:03.774Z,51.29
2018-05-06T05:03:29.262Z,51.57
2018-05-06T05:03:54.719Z,51.48
2018-05-06T05:04:20.185Z,51.57
2018-05-06T05:04:45.658Z,51.67
2018-05-06T05:05:11.200Z,50.71
2018-05-06T05:05:36.679Z,51
2018-05-06T05:06:02.164Z,51
2018-05-06T05:06:27.599Z,50.62
2018-05-06T05:06:53.179Z,50.71
2018-05-06T05:07:18.633Z,50.62
2018-05-06T05:07:44.103Z,50.62
2018-05-06T05:08:09.643Z,50.9
2018-05-06T05:08:35.176Z,50.43
2018-05-06T05:09:00.703Z,50.14
2018-05-06T05:09:26.103Z,50.14
2018-05-06T05:09:51.563Z,50.04
2018-05-06T05:10:17.037Z,50.43
2018-05-06T05:10:42.494Z,50.33
2018-05-06T05:11:07.959Z,50.33
2018-05-06T05:11:33.431Z,50.52
2018-05-06T05:11:58.934Z,50.43
2018-05-06T05:12:24.521Z,50.52
2018-05-06T05:12:49.958Z,50.43
2018-05-06T05:13:15.412Z,50.33
2018-05-06T05:13:40.923Z,50.35
2018-05-06T05:14:06.371Z,50.35
2018-05-06T05:14:31.883Z,49.88
2018-05-06T05:14:57.325Z,49.98
2018-05-06T05:15:22.827Z,49.59
2018-05-06T05:15:48.334Z,49.69
2018-05-06T05:16:13.888Z,49.49
2018-05-06T05:16:39.411Z,49.78
2018-05-06T05:17:04.962Z,49.69
2018-05-06T05:17:30.587Z,49.78
2018-05-06T05:17:56.085Z,49.49
2018-05-06T05:18:21.554Z,49.49
2018-05-06T05:18:47.047Z,48.73
2018-05-06T05:19:12.538Z,48.93
2018-05-06T05:19:38.089Z,49.14
2018-05-06T05:20:03.634Z,48.75
2018-05-06T05:20:29.213Z,48.64
2018-05-06T05:20:54.659Z,48.93
2018-05-06T05:21:20.201Z,48.93
2018-05-06T05:21:45.721Z,48.64
2018-05-06T05:22:11.199Z,48.73
2018-05-06T05:22:36.681Z,48.75
2018-05-06T05:23:02.137Z,48.75
2018-05-06T05:23:27.616Z,48.85
2018-05-06T05:23:53.056Z,49.23
2018-05-06T05:24:18.509Z,49.14
2018-05-06T05:24:43.946Z,48.95
2018-05-06T05:25:09.403Z,48.85
2018-05-06T05:25:34.902Z,48.85
2018-05-06T05:26:00.389Z,48.85
2018-05-06T05:26:25.842Z,48.75
2018-05-06T05:26:51.332Z,48.75
2018-05-06T05:27:16.820Z,48.66
2018-05-06T05:27:42.257Z,48.95
2018-05-06T05:28:07.760Z,48.68
2018-05-06T05:28:33.237Z,48.78
2018-05-06T05:28:58.680Z,48.28
2018-05-06T05:29:24.115Z,47.92
2018-05-06T05:29:49.610Z,48.21
2018-05-06T05:30:15.079Z,47.73
2018-05-06T05:30:40.552Z,47.92
2018-05-06T05:31:06.031Z,47.82
2018-05-06T05:31:31.657Z,47.44
2018-05-06T05:31:57.155Z,47.73
2018-05-06T05:32:22.615Z,47.44
2018-05-06T05:32:48.066Z,47.34
2018-05-06T05:33:13.541Z,47.25
2018-05-06T05:33:38.988Z,46.96
2018-05-06T05:34:04.495Z,46.7
2018-05-06T05:34:30.020Z,46.77
2018-05-06T05:34:55.409Z,47.18
2018-05-06T05:35:20.915Z,47.18
2018-05-06T05:35:46.335Z,46.8
2018-05-06T05:36:11.860Z,46.8
2018-05-06T05:36:37.624Z,46.8
2018-05-06T05:37:03.063Z,46.41
2018-05-06T05:37:28.564Z,46.31
2018-05-06T05:37:54.090Z,46.31
2018-05-06T05:38:19.489Z,46.22
2018-05-06T05:38:44.945Z,46.22
2018-05-06T05:39:10.427Z,46.51
2018-05-06T05:39:35.893Z,46.31
2018-05-06T05:40:01.390Z,46.31
2018-05-06T05:40:26.897Z,46.51
2018-05-06T05:40:52.592Z,46.22
2018-05-06T05:41:17.941Z,46.8
2018-05-06T05:41:43.367Z,46.98
2018-05-06T05:42:08.867Z,47.11
2018-05-06T05:42:34.362Z,46.61
2018-05-06T05:42:59.845Z,46.7
2018-05-06T05:43:25.317Z,46.72
2018-05-06T05:43:50.862Z,46.53
2018-05-06T05:44:16.303Z,46.25
2018-05-06T05:44:41.747Z,46.25
2018-05-06T05:45:07.268Z,46.44
2018-05-06T05:45:32.745Z,45.96
2018-05-06T05:45:58.169Z,46.05
2018-05-06T05:46:24.103Z,46.15
2018-05-06T05:46:49.693Z,46.34
2018-05-06T05:47:15.238Z,45.67
2018-05-06T05:47:40.694Z,46.05
2018-05-06T05:48:06.175Z,45.86
2018-05-06T05:48:31.646Z,45.57
2018-05-06T05:48:57.109Z,45.96
2018-05-06T05:49:22.629Z,45.86
2018-05-06T05:49:48.266Z,46.25
2018-05-06T05:50:13.659Z,46.82
2018-05-06T05:50:39.162Z,46.44
2018-05-06T05:51:04.674Z,46.25
2018-05-06T05:51:30.361Z,46.34
2018-05-06T05:51:55.922Z,46.15
2018-05-06T05:52:21.479Z,46.15
2018-05-06T05:52:47.037Z,46.34
2018-05-06T05:53:12.694Z,45.96
2018-05-06T05:53:38.461Z,46.05
2018-05-06T05:54:03.934Z,45.67
2018-05-06T05:54:29.607Z,45.96
2018-05-06T05:54:54.885Z,46.44
2018-05-06T05:55:20.602Z,46.82
2018-05-06T05:55:46.013Z,46.34
2018-05-06T05:56:11.619Z,46.44
2018-05-06T05:56:37.226Z,46.53
2018-05-06T05:57:02.743Z,46.62
2018-05-06T05:57:28.253Z,46.91
2018-05-06T05:57:53.722Z,46.82
2018-05-06T05:58:19.189Z,46.75
2018-05-06T05:58:44.629Z,47.13
2018-05-06T05:59:10.111Z,46.94
2018-05-06T05:59:35.600Z,46.26
2018-05-06T06:00:01.047Z,45.69
2018-05-06T06:00:26.504Z,45.98
2018-05-06T06:00:51.948Z,45.89
2018-05-06T06:01:17.523Z,45.79
2018-05-06T06:01:42.942Z,45.89
2018-05-06T06:02:08.561Z,45.89
2018-05-06T06:02:34.154Z,45.79
2018-05-06T06:02:59.709Z,45.76
2018-05-06T06:03:25.198Z,46.05
2018-05-06T06:03:50.785Z,45.59
2018-05-06T06:04:16.319Z,45.67
2018-05-06T06:04:41.795Z,45.67
2018-05-06T06:05:07.242Z,45.86
2018-05-06T06:05:32.820Z,45.57
2018-05-06T06:05:58.368Z,46.15
2018-05-06T06:06:23.815Z,46.34
2018-05-06T06:06:49.357Z,46.72
2018-05-06T06:07:14.815Z,46.53
2018-05-06T06:07:40.275Z,46.62
2018-05-06T06:08:05.862Z,46.34
2018-05-06T06:08:31.271Z,46.62
2018-05-06T06:08:57.127Z,46.34
2018-05-06T06:09:22.852Z,46.53
2018-05-06T06:09:48.291Z,46.53
2018-05-06T06:10:13.737Z,46.53
2018-05-06T06:10:39.431Z,46.91
2018-05-06T06:11:05.036Z,47.11
2018-05-06T06:11:30.499Z,46.82
2018-05-06T06:11:56.475Z,46.72
2018-05-06T06:12:21.984Z,46.53
2018-05-06T06:12:47.638Z,47.03
2018-05-06T06:13:13.029Z,46.84
2018-05-06T06:13:38.466Z,46.84
2018-05-06T06:14:04.011Z,46.26
2018-05-06T06:14:29.530Z,45.59
2018-05-06T06:14:55.095Z,45.89
2018-05-06T06:15:20.532Z,45.79
2018-05-06T06:15:45.976Z,46.08
2018-05-06T06:16:11.492Z,45.98
2018-05-06T06:16:36.920Z,45.89
2018-05-06T06:17:02.395Z,46.08
2018-05-06T06:17:28.103Z,46.08
2018-05-06T06:17:53.573Z,45.69
2018-05-06T06:18:19.014Z,45.69
2018-05-06T06:18:44.488Z,45.69
2018-05-06T06:19:09.976Z,45.59
2018-05-06T06:19:35.458Z,45.31
2018-05-06T06:20:00.944Z,45.12
2018-05-06T06:20:26.362Z,45.31
2018-05-06T06:20:51.938Z,45.21
2018-05-06T06:21:17.376Z,45.4
2018-05-06T06:21:42.845Z,45.89
2018-05-06T06:22:08.395Z,45.79
2018-05-06T06:22:33.955Z,45.5
2018-05-06T06:22:59.350Z,45.69
2018-05-06T06:23:24.820Z,45.62
2018-05-06T06:23:50.298Z,45.81
2018-05-06T06:24:15.868Z,45.9
2018-05-06T06:24:41.519Z,45.43
2018-05-06T06:25:06.728Z,45.43
2018-05-06T06:25:32.264Z,45.43
2018-05-06T06:25:57.682Z,45.43
2018-05-06T06:26:23.223Z,45.04
2018-05-06T06:26:48.625Z,44.85
2018-05-06T06:27:14.095Z,44.85
2018-05-06T06:27:39.595Z,45.23
2018-05-06T06:28:05.130Z,44.76
2018-05-06T06:28:30.567Z,45.23
2018-05-06T06:28:56.143Z,45.33
2018-05-06T06:29:21.568Z,45.14
2018-05-06T06:29:46.996Z,45.14
2018-05-06T06:30:12.476Z,45.04
2018-05-06T06:30:37.992Z,44.95
2018-05-06T06:31:03.477Z,45.43
2018-05-06T06:31:28.906Z,45.33
2018-05-06T06:31:54.442Z,45.14
2018-05-06T06:32:20.159Z,44.95
2018-05-06T06:32:45.652Z,45.43
2018-05-06T06:33:11.097Z,45.07
2018-05-06T06:33:36.611Z,44.68
2018-05-06T06:34:02.094Z,45.16
2018-05-06T06:34:27.561Z,44.78
2018-05-06T06:34:53.065Z,44.68
2018-05-06T06:35:18.545Z,45.16
2018-05-06T06:35:44.050Z,44.87
2018-05-06T06:36:09.471Z,44.87
2018-05-06T06:36:34.933Z,45.16
2018-05-06T06:37:00.444Z,44.87
2018-05-06T06:37:26.086Z,45.07
2018-05-06T06:37:51.486Z,44.68
2018-05-06T06:38:17.050Z,44.59
2018-05-06T06:38:42.486Z,44.9
2018-05-06T06:39:07.918Z,44.49
2018-05-06T06:39:33.409Z,44.9
2018-05-06T06:39:58.883Z,45.28
2018-05-06T06:40:24.347Z,45
2018-05-06T06:40:49.977Z,45
2018-05-06T06:41:15.421Z,45
2018-05-06T06:41:41.022Z,45
2018-05-06T06:42:06.559Z,44.32
2018-05-06T06:42:32.169Z,44.42
2018-05-06T06:42:57.691Z,44.42
2018-05-06T06:43:23.139Z,44.03
2018-05-06T06:43:48.717Z,43.46
2018-05-06T06:44:14.263Z,43.55
2018-05-06T06:44:40.997Z,43.55
2018-05-06T06:45:06.652Z,43.46
2018-05-06T06:45:32.475Z,43.65
2018-05-06T06:45:58.243Z,43.07
2018-05-06T06:46:23.800Z,42.98
2018-05-06T06:46:49.256Z,43.36
2018-05-06T06:47:14.696Z,43.55
2018-05-06T06:47:40.330Z,43.94
2018-05-06T06:48:05.888Z,44.15
2018-05-06T06:48:31.284Z,43.65
2018-05-06T06:48:56.746Z,43.17
2018-05-06T06:49:22.317Z,43.07
2018-05-06T06:49:47.789Z,43.36
2018-05-06T06:50:13.257Z,43.57
2018-05-06T06:50:38.755Z,43.48
2018-05-06T06:51:04.247Z,44.03
2018-05-06T06:51:29.732Z,43.67
2018-05-06T06:51:55.224Z,43.57
2018-05-06T06:52:20.631Z,43.77
2018-05-06T06:52:46.112Z,43.19
2018-05-06T06:53:11.583Z,43
2018-05-06T06:53:37.053Z,43.19
2018-05-06T06:54:02.562Z,43.48
2018-05-06T06:54:28.033Z,43.57
2018-05-06T06:54:53.550Z,43.57
2018-05-06T06:55:18.997Z,43.67
2018-05-06T06:55:44.514Z,43.57
2018-05-06T06:56:09.947Z,43.29
2018-05-06T06:56:35.387Z,43.1
2018-05-06T06:57:00.877Z,43.1
2018-05-06T06:57:26.360Z,43.57
2018-05-06T06:57:51.818Z,43.57
2018-05-06T06:58:17.263Z,43.48
2018-05-06T06:58:42.732Z,43.29
2018-05-06T06:59:08.229Z,43.4
2018-05-06T06:59:33.729Z,43.21
2018-05-06T06:59:59.236Z,43.02
2018-05-06T07:00:24.699Z,43.12
2018-05-06T07:00:50.180Z,43.02
2018-05-06T07:01:15.657Z,43.12
2018-05-06T07:01:41.098Z,43.02
2018-05-06T07:02:06.566Z,43.4
2018-05-06T07:02:32.090Z,43.02
2018-05-06T07:02:57.553Z,43.31
2018-05-06T07:03:23.036Z,43.21
2018-05-06T07:03:48.635Z,42.73
2018-05-06T07:04:14.115Z,42.16
2018-05-06T07:04:39.577Z,42.06
2018-05-06T07:05:05.093Z,42.16
2018-05-06T07:05:30.607Z,42.06
2018-05-06T07:05:56.063Z,42.44
2018-05-06T07:06:21.524Z,42.16
2018-05-06T07:06:46.974Z,41.49
2018-05-06T07:07:12.538Z,41.77
2018-05-06T07:07:38.308Z,41.77
2018-05-06T07:08:03.772Z,41.67
2018-05-06T07:08:29.264Z,41.77
2018-05-06T07:08:54.745Z,41.77
2018-05-06T07:09:20.230Z,41.87
2018-05-06T07:09:45.692Z,41.77
2018-05-06T07:10:11.158Z,41.96
2018-05-06T07:10:36.602Z,42.06
2018-05-06T07:11:02.091Z,41.77
2018-05-06T07:11:27.564Z,41.87
2018-05-06T07:11:53.063Z,41.77
2018-05-06T07:12:18.544Z,42.16
2018-05-06T07:12:43.966Z,41.87
2018-05-06T07:13:09.568Z,42.16
2018-05-06T07:13:35.101Z,41.77
2018-05-06T07:14:00.583Z,41.96
2018-05-06T07:14:26.036Z,41.77
2018-05-06T07:14:51.649Z,42.54
2018-05-06T07:15:17.126Z,41.77
2018-05-06T07:15:42.702Z,41.87
2018-05-06T07:16:09.108Z,41.77
2018-05-06T07:16:34.646Z,41.58
2018-05-06T07:17:00.160Z,41.29
2018-05-06T07:17:25.614Z,40.81
2018-05-06T07:17:51.199Z,40.72
2018-05-06T07:18:16.584Z,41
2018-05-06T07:18:42.183Z,40.91
2018-05-06T07:19:07.739Z,40.81
2018-05-06T07:19:33.275Z,40.72
2018-05-06T07:19:58.801Z,40.81
2018-05-06T07:20:24.334Z,41.1
2018-05-06T07:20:49.915Z,40.81
2018-05-06T07:21:15.393Z,41.1
2018-05-06T07:21:40.966Z,41.29
2018-05-06T07:22:06.535Z,41.1
2018-05-06T07:22:32.099Z,41.2
2018-05-06T07:22:57.618Z,41.39
2018-05-06T07:23:23.153Z,41.39
2018-05-06T07:23:48.692Z,41
2018-05-06T07:24:14.216Z,41
2018-05-06T07:24:39.755Z,41.1
2018-05-06T07:25:05.336Z,40.52
2018-05-06T07:25:30.842Z,40.33
2018-05-06T07:25:56.392Z,40.33
2018-05-06T07:26:21.882Z,40.45
2018-05-06T07:26:47.416Z,40.35
2018-05-06T07:27:12.920Z,40.25
2018-05-06T07:27:38.406Z,40.35
2018-05-06T07:28:03.967Z,40.83
2018-05-06T07:28:29.525Z,41.02
2018-05-06T07:28:55.028Z,41.7
2018-05-06T07:29:20.588Z,41.79
2018-05-06T07:29:46.062Z,40.73
2018-05-06T07:30:11.594Z,40.64
2018-05-06T07:30:37.308Z,39.78
2018-05-06T07:31:02.811Z,39.78
2018-05-06T07:31:28.445Z,39.87
2018-05-06T07:31:53.993Z,39.78
2018-05-06T07:32:19.528Z,40.06
2018-05-06T07:32:45.063Z,40.35
2018-05-06T07:33:10.526Z,40.55
2018-05-06T07:33:36.009Z,40.55
2018-05-06T07:34:01.834Z,40.25
2018-05-06T07:34:27.285Z,40.35
2018-05-06T07:34:52.808Z,40.64
2018-05-06T07:35:18.281Z,40.73
2018-05-06T07:35:43.896Z,41.12
2018-05-06T07:36:09.405Z,41.14
2018-05-06T07:36:34.947Z,41.24
2018-05-06T07:37:00.684Z,40.95
2018-05-06T07:37:26.241Z,40.47
2018-05-06T07:37:51.811Z,40.76
2018-05-06T07:38:17.427Z,40.56
2018-05-06T07:38:43.001Z,40.08
2018-05-06T07:39:08.538Z,40.28
2018-05-06T07:39:34.098Z,39.89
2018-05-06T07:39:59.817Z,39.99
2018-05-06T07:40:26.381Z,40.08
2018-05-06T07:40:51.300Z,40.18
2018-05-06T07:41:17.004Z,40.08
2018-05-06T07:41:43.293Z,39.79
2018-05-06T07:42:08.897Z,39.99
2018-05-06T07:42:34.537Z,40.49
2018-05-06T07:43:00.111Z,39.91
2018-05-06T07:43:25.759Z,40.01
2018-05-06T07:43:51.219Z,39.53
2018-05-06T07:44:17.176Z,39.33
2018-05-06T07:44:42.664Z,39.04
2018-05-06T07:45:08.266Z,38.66
2018-05-06T07:45:33.878Z,38.85
2018-05-06T07:45:59.455Z,39.04
2018-05-06T07:46:25.020Z,39.33
2018-05-06T07:46:50.528Z,39.24
2018-05-06T07:47:16.096Z,39.41
2018-05-06T07:47:41.633Z,39.72
2018-05-06T07:48:07.203Z,39.81
2018-05-06T07:48:32.785Z,40.11
2018-05-06T07:48:58.264Z,39.62
2018-05-06T07:49:23.751Z,39.53
2018-05-06T07:49:50.181Z,38.95
2018-05-06T07:50:49.053Z,39.33
2018-05-06T07:51:14.420Z,39.53
2018-05-06T07:51:40.328Z,39.43
2018-05-06T07:52:06.086Z,39.22
2018-05-06T07:52:32.073Z,39.22
2018-05-06T07:52:57.562Z,39.03
2018-05-06T07:53:23.240Z,38.93
2018-05-06T07:53:49.417Z,39.12
2018-05-06T07:54:15.283Z,39.22
2018-05-06T07:54:41.140Z,38.93
2018-05-06T07:55:06.748Z,39.31
2018-05-06T07:55:33.063Z,39.7
2018-05-06T07:55:58.914Z,39.7
2018-05-06T07:56:24.695Z,39.99
2018-05-06T07:56:50.531Z,40.28
2018-05-06T07:57:16.830Z,39.79
2018-05-06T07:57:42.466Z,40.08
2018-05-06T07:58:59.536Z,40.08
